createdAt,value
2023-03-08T00:01:34.970Z,66.52
2023-03-08T00:04:04.720Z,66.39
2023-03-08T00:06:33.269Z,66.41
2023-03-08T00:09:06.351Z,66.63
2023-03-08T00:11:34.739Z,66.59
2023-03-08T00:14:03.828Z,66.54
2023-03-08T00:16:32.211Z,66.70
2023-03-08T00:19:00.593Z,66.69
2023-03-08T00:21:30.009Z,67.01
2023-03-08T00:24:00.113Z,66.81
2023-03-08T00:26:28.494Z,67.10
2023-03-08T00:28:57.123Z,66.98
2023-03-08T00:31:26.769Z,66.93
2023-03-08T00:33:55.602Z,67.20
2023-03-08T00:36:26.135Z,67.23
2023-03-08T00:38:56.541Z,67.26
2023-03-08T00:41:24.815Z,67.58
2023-03-08T00:43:54.219Z,67.69
2023-03-08T00:46:22.727Z,67.79
2023-03-08T00:48:55.077Z,67.96
2023-03-08T00:51:23.764Z,67.73
2023-03-08T00:53:54.296Z,67.74
2023-03-08T00:56:22.873Z,67.84
2023-03-08T00:58:52.152Z,67.66
2023-03-08T01:01:20.891Z,67.84
2023-03-08T01:03:51.442Z,67.57
2023-03-08T01:06:20.533Z,67.88
2023-03-08T01:08:50.403Z,67.68
2023-03-08T01:11:26.224Z,67.93
2023-03-08T01:13:54.738Z,68.31
2023-03-08T01:16:28.125Z,68.35
2023-03-08T01:18:58.670Z,68.23
2023-03-08T01:21:28.325Z,68.25
2023-03-08T01:23:57.066Z,68.25
2023-03-08T01:26:26.490Z,68.05
2023-03-08T01:28:58.332Z,68.09
2023-03-08T01:31:28.718Z,68.14
2023-03-08T01:33:58.161Z,68.40
2023-03-08T01:36:27.886Z,68.22
2023-03-08T01:38:56.670Z,68.09
2023-03-08T01:41:27.223Z,68.07
2023-03-08T01:43:58.336Z,68.09
2023-03-08T01:46:36.758Z,68.07
2023-03-08T01:49:28.276Z,68.33
2023-03-08T01:52:12.024Z,68.41
2023-03-08T01:54:43.888Z,68.55
2023-03-08T01:57:26.081Z,68.68
2023-03-08T02:00:04.600Z,68.52
2023-03-08T02:02:58.680Z,68.46
2023-03-08T02:05:27.572Z,68.40
2023-03-08T02:08:00.163Z,68.53
2023-03-08T02:10:32.526Z,68.38
2023-03-08T02:13:07.875Z,68.55
2023-03-08T02:15:39.219Z,68.58
2023-03-08T02:18:08.011Z,68.33
2023-03-08T02:20:40.901Z,68.50
2023-03-08T02:23:09.793Z,68.55
2023-03-08T02:25:38.382Z,68.21
2023-03-08T02:28:10.139Z,68.57
2023-03-08T02:30:38.827Z,68.45
2023-03-08T02:33:07.930Z,68.49
2023-03-08T02:35:39.006Z,68.60
2023-03-08T02:38:07.440Z,68.44
2023-03-08T02:40:38.631Z,68.69
2023-03-08T02:43:07.178Z,68.71
2023-03-08T02:45:36.992Z,68.36
2023-03-08T02:48:06.419Z,68.43
2023-03-08T02:50:36.829Z,68.24
2023-03-08T02:53:05.410Z,68.30
2023-03-08T02:55:37.483Z,68.27
2023-03-08T02:58:10.486Z,68.33
2023-03-08T03:00:39.162Z,68.46
2023-03-08T03:03:08.965Z,68.54
2023-03-08T03:05:43.809Z,68.36
2023-03-08T03:08:16.485Z,68.33
2023-03-08T03:10:46.019Z,68.40
2023-03-08T03:13:17.543Z,68.42
2023-03-08T03:15:46.053Z,68.63
2023-03-08T03:18:16.653Z,68.52
2023-03-08T03:20:45.145Z,68.69
2023-03-08T03:23:17.313Z,68.58
2023-03-08T03:25:50.722Z,68.84
2023-03-08T03:28:21.336Z,68.54
2023-03-08T03:30:52.058Z,68.71
2023-03-08T03:33:21.783Z,68.72
2023-03-08T03:35:54.684Z,68.71
2023-03-08T03:38:23.867Z,68.64
2023-03-08T03:41:22.882Z,68.85
2023-03-08T03:43:54.752Z,68.77
2023-03-08T03:46:27.669Z,68.78
2023-03-08T03:48:57.263Z,68.37
2023-03-08T03:51:27.152Z,68.56
2023-03-08T03:54:07.286Z,68.46
2023-03-08T03:56:36.175Z,68.34
2023-03-08T03:59:04.788Z,68.28
2023-03-08T04:01:40.740Z,68.56
2023-03-08T04:04:23.257Z,68.61
2023-03-08T04:06:53.583Z,68.63
2023-03-08T04:09:25.474Z,68.42
2023-03-08T04:12:08.364Z,68.23
2023-03-08T04:14:37.464Z,68.35
2023-03-08T04:17:07.584Z,68.29
2023-03-08T04:19:55.421Z,68.52
2023-03-08T04:22:26.362Z,68.40
2023-03-08T04:24:58.733Z,68.63
2023-03-08T04:27:35.925Z,68.86
2023-03-08T04:30:05.225Z,68.72
2023-03-08T04:32:34.722Z,68.54
2023-03-08T04:35:04.242Z,68.73
2023-03-08T04:37:33.538Z,68.89
2023-03-08T04:40:10.740Z,68.91
2023-03-08T04:42:47.506Z,69.12
2023-03-08T04:45:17.827Z,69.10
2023-03-08T04:47:46.619Z,68.95
2023-03-08T04:50:15.925Z,68.88
2023-03-08T04:52:44.614Z,68.65
2023-03-08T04:55:13.604Z,68.45
2023-03-08T04:57:43.226Z,68.39
2023-03-08T05:00:12.784Z,68.50
2023-03-08T05:02:43.212Z,68.50
2023-03-08T05:05:15.259Z,68.40
2023-03-08T05:07:44.416Z,68.39
2023-03-08T05:10:14.434Z,68.51
2023-03-08T05:12:44.148Z,68.60
2023-03-08T05:15:12.834Z,68.44
2023-03-08T05:17:42.955Z,68.48
2023-03-08T05:20:16.607Z,68.43
2023-03-08T05:22:58.298Z,68.44
2023-03-08T05:26:11.976Z,68.46
2023-03-08T05:28:44.683Z,68.41
2023-03-08T05:31:13.613Z,68.31
2023-03-08T05:33:43.894Z,67.96
2023-03-08T05:36:12.786Z,68.00
2023-03-08T05:38:41.684Z,68.06
2023-03-08T05:41:15.041Z,68.01
2023-03-08T05:43:46.429Z,67.89
2023-03-08T05:46:16.931Z,67.94
2023-03-08T05:48:45.651Z,67.86
2023-03-08T05:51:16.966Z,67.74
2023-03-08T05:53:46.096Z,67.69
2023-03-08T05:56:18.105Z,67.65
2023-03-08T05:58:52.589Z,67.60
2023-03-08T06:01:23.732Z,67.44
2023-03-08T06:03:56.305Z,67.41
2023-03-08T06:06:26.629Z,67.27
2023-03-08T06:08:56.542Z,67.28
2023-03-08T06:11:31.071Z,67.32
2023-03-08T06:14:00.577Z,67.51
2023-03-08T06:16:31.293Z,67.27
2023-03-08T06:19:01.979Z,67.14
2023-03-08T06:21:31.253Z,67.10
2023-03-08T06:24:04.658Z,66.84
2023-03-08T06:26:33.441Z,66.72
2023-03-08T06:29:02.435Z,66.62
2023-03-08T06:31:32.559Z,66.61
2023-03-08T06:34:01.864Z,66.50
2023-03-08T06:36:33.623Z,66.63
2023-03-08T06:39:02.517Z,66.59
2023-03-08T06:41:33.149Z,65.97
2023-03-08T06:44:02.250Z,65.99
2023-03-08T06:46:31.039Z,65.83
2023-03-08T06:49:00.136Z,65.56
2023-03-08T06:51:30.054Z,65.39
2023-03-08T06:54:05.435Z,65.00
2023-03-08T06:56:35.379Z,64.90
2023-03-08T06:59:03.804Z,64.89
2023-03-08T07:01:33.146Z,64.93
2023-03-08T07:04:01.638Z,64.66
2023-03-08T07:06:30.167Z,64.84
2023-03-08T07:09:00.801Z,64.79
2023-03-08T07:11:31.843Z,64.52
2023-03-08T07:14:00.219Z,64.50
2023-03-08T07:16:29.931Z,64.21
2023-03-08T07:18:58.313Z,63.93
2023-03-08T07:21:26.900Z,63.93
2023-03-08T07:23:55.278Z,63.71
2023-03-08T07:26:23.764Z,63.62
2023-03-08T07:28:52.271Z,63.51
2023-03-08T07:31:20.834Z,63.38
2023-03-08T07:33:49.825Z,63.20
2023-03-08T07:36:18.618Z,63.41
2023-03-08T07:38:47.610Z,63.41
2023-03-08T07:41:19.473Z,63.35
2023-03-08T07:43:47.958Z,63.36
2023-03-08T07:46:24.652Z,63.05
2023-03-08T07:48:55.409Z,62.55
2023-03-08T07:51:24.530Z,62.07
2023-03-08T07:53:53.256Z,61.65
2023-03-08T07:56:21.640Z,61.73
2023-03-08T07:58:51.456Z,61.49
2023-03-08T08:01:20.348Z,61.44
2023-03-08T08:03:48.958Z,61.33
2023-03-08T08:06:17.518Z,61.12
2023-03-08T08:08:46.101Z,61.54
2023-03-08T08:11:16.667Z,61.68
2023-03-08T08:13:49.514Z,61.83
2023-03-08T08:16:18.553Z,61.85
2023-03-08T08:18:47.196Z,61.83
2023-03-08T08:21:15.983Z,61.92
2023-03-08T08:23:44.769Z,61.66
2023-03-08T08:26:18.118Z,61.57
2023-03-08T08:28:48.035Z,61.40
2023-03-08T08:31:19.594Z,61.28
2023-03-08T08:33:49.663Z,60.91
2023-03-08T08:36:19.604Z,60.45
2023-03-08T08:38:49.797Z,60.46
2023-03-08T08:41:19.434Z,60.63
2023-03-08T08:43:47.991Z,60.58
2023-03-08T08:46:16.680Z,60.38
2023-03-08T08:48:47.214Z,60.57
2023-03-08T08:51:16.112Z,60.60
2023-03-08T08:53:44.686Z,60.24
2023-03-08T08:56:26.737Z,60.11
2023-03-08T08:58:57.656Z,60.29
2023-03-08T09:01:28.252Z,60.27
2023-03-08T09:04:17.382Z,60.30
2023-03-08T09:06:46.314Z,60.79
2023-03-08T09:09:16.229Z,61.05
2023-03-08T09:11:55.233Z,61.22
2023-03-08T09:14:26.027Z,61.23
2023-03-08T09:16:54.679Z,61.13
2023-03-08T09:19:23.384Z,61.28
2023-03-08T09:21:52.157Z,60.80
2023-03-08T09:24:21.152Z,60.57
2023-03-08T09:26:51.067Z,60.24
2023-03-08T09:29:20.067Z,60.24
2023-03-08T09:31:48.526Z,60.82
2023-03-08T09:34:18.360Z,61.07
2023-03-08T09:36:47.764Z,61.22
2023-03-08T09:39:21.267Z,61.83
2023-03-08T09:41:59.373Z,62.42
2023-03-08T09:44:49.769Z,63.18
2023-03-08T09:47:40.523Z,63.24
2023-03-08T09:50:12.845Z,63.75
2023-03-08T09:53:00.478Z,64.60
2023-03-08T09:55:32.332Z,65.43
2023-03-08T09:58:03.991Z,66.27
2023-03-08T10:00:35.172Z,66.65
2023-03-08T10:04:02.033Z,66.71
2023-03-08T10:06:37.171Z,66.57
2023-03-08T10:09:34.687Z,66.66
2023-03-08T10:12:13.565Z,67.17
2023-03-08T10:14:54.500Z,67.17
2023-03-08T10:17:55.323Z,66.59
2023-03-08T10:20:28.515Z,66.47
2023-03-08T10:23:00.080Z,66.71
2023-03-08T10:25:34.152Z,66.82
2023-03-08T10:28:04.312Z,67.29
2023-03-08T10:30:35.569Z,67.96
2023-03-08T10:33:07.829Z,68.37
2023-03-08T10:35:38.569Z,69.14
2023-03-08T10:38:17.336Z,69.55
2023-03-08T10:40:46.487Z,69.41
2023-03-08T10:43:28.273Z,69.49
2023-03-08T10:46:02.199Z,69.40
2023-03-08T10:48:30.775Z,69.64
2023-03-08T10:51:04.905Z,70.14
2023-03-08T10:53:33.261Z,70.44
2023-03-08T10:56:21.412Z,70.46
2023-03-08T10:58:49.991Z,70.60
2023-03-08T11:01:29.850Z,70.77
2023-03-08T11:04:14.237Z,71.32
2023-03-08T11:06:43.085Z,70.89
2023-03-08T11:09:38.403Z,70.30
2023-03-08T11:12:07.201Z,68.86
2023-03-08T11:14:36.058Z,68.45
2023-03-08T11:17:20.221Z,67.92
2023-03-08T11:20:18.712Z,67.25
2023-03-08T11:22:56.106Z,66.46
2023-03-08T11:25:39.952Z,64.18
2023-03-08T11:28:14.122Z,61.47
2023-03-08T11:30:55.152Z,62.37
2023-03-08T11:33:24.576Z,62.28
2023-03-08T11:36:05.137Z,60.83
2023-03-08T11:38:34.101Z,60.22
2023-03-08T11:41:21.426Z,60.27
2023-03-08T11:44:27.390Z,60.58
2023-03-08T11:47:03.959Z,61.49
2023-03-08T11:49:50.777Z,62.64
2023-03-08T11:52:35.332Z,63.26
2023-03-08T11:55:25.861Z,64.54
2023-03-08T11:57:58.105Z,64.97
2023-03-08T12:00:45.017Z,65.90
2023-03-08T12:03:25.405Z,66.04
2023-03-08T12:05:57.257Z,65.86
2023-03-08T12:08:48.322Z,65.86
2023-03-08T12:11:58.514Z,65.92
2023-03-08T12:14:31.518Z,65.50
2023-03-08T12:17:22.781Z,65.90
2023-03-08T12:19:51.619Z,65.96
2023-03-08T12:22:34.563Z,66.19
2023-03-08T12:25:25.419Z,65.72
2023-03-08T12:27:58.785Z,66.21
2023-03-08T12:30:40.740Z,66.12
2023-03-08T12:33:11.987Z,65.96
2023-03-08T12:35:51.212Z,65.68
2023-03-08T12:38:20.138Z,65.46
2023-03-08T12:40:50.103Z,64.94
2023-03-08T12:43:21.495Z,65.37
2023-03-08T12:45:59.455Z,65.62
2023-03-08T12:48:31.083Z,65.67
2023-03-08T12:51:11.830Z,65.21
2023-03-08T12:53:51.680Z,65.58
2023-03-08T12:56:35.157Z,65.05
2023-03-08T12:59:15.466Z,63.57
2023-03-08T13:01:45.310Z,62.34
2023-03-08T13:04:41.484Z,61.08
2023-03-08T13:07:16.090Z,59.27
2023-03-08T13:09:47.398Z,57.63
2023-03-08T13:12:17.108Z,56.74
2023-03-08T13:15:11.606Z,56.18
2023-03-08T13:17:52.788Z,53.96
2023-03-08T13:20:43.921Z,53.83
2023-03-08T13:23:15.416Z,52.68
2023-03-08T13:25:45.696Z,51.93
2023-03-08T13:28:21.988Z,51.43
2023-03-08T13:30:56.954Z,51.35
2023-03-08T13:33:33.966Z,50.48
2023-03-08T13:36:04.787Z,50.42
2023-03-08T13:38:36.021Z,49.84
2023-03-08T13:41:04.539Z,48.68
2023-03-08T13:43:34.460Z,48.88
2023-03-08T13:46:06.631Z,48.17
2023-03-08T13:48:37.469Z,48.79
2023-03-08T13:51:06.355Z,48.00
2023-03-08T13:53:37.090Z,47.36
2023-03-08T13:56:06.395Z,47.18
2023-03-08T13:58:42.097Z,47.04
2023-03-08T14:01:15.533Z,46.89
2023-03-08T14:03:45.350Z,46.20
2023-03-08T14:06:21.836Z,46.58
2023-03-08T14:08:50.533Z,46.97
2023-03-08T14:11:22.289Z,46.50
2023-03-08T14:13:57.860Z,45.51
2023-03-08T14:16:31.886Z,45.60
2023-03-08T14:19:08.875Z,46.08
2023-03-08T14:21:48.825Z,45.51
2023-03-08T14:24:22.974Z,45.53
2023-03-08T14:27:05.414Z,45.85
2023-03-08T14:29:34.825Z,46.81
2023-03-08T14:32:13.043Z,47.53
2023-03-08T14:34:44.610Z,48.18
2023-03-08T14:37:13.167Z,48.37
2023-03-08T14:39:44.403Z,48.96
2023-03-08T14:42:30.924Z,49.75
2023-03-08T14:45:16.815Z,50.55
2023-03-08T14:47:59.144Z,51.04
2023-03-08T14:50:32.183Z,52.14
2023-03-08T14:53:02.643Z,52.59
2023-03-08T14:55:40.239Z,53.34
2023-03-08T14:58:13.442Z,53.94
2023-03-08T15:00:54.514Z,54.52
2023-03-08T15:03:24.034Z,55.20
2023-03-08T15:05:53.172Z,55.79
2023-03-08T15:08:22.416Z,56.11
2023-03-08T15:10:51.929Z,56.63
2023-03-08T15:13:23.112Z,57.05
2023-03-08T15:15:51.717Z,56.58
2023-03-08T15:18:21.166Z,56.85
2023-03-08T15:20:50.109Z,57.06
2023-03-08T15:23:31.360Z,57.24
2023-03-08T15:26:00.044Z,57.63
2023-03-08T15:28:28.821Z,58.18
2023-03-08T15:30:57.488Z,58.81
2023-03-08T15:33:25.998Z,59.58
2023-03-08T15:35:55.233Z,60.77
2023-03-08T15:38:25.006Z,61.98
2023-03-08T15:40:57.892Z,62.95
2023-03-08T15:43:26.685Z,63.54
2023-03-08T15:45:55.065Z,64.16
2023-03-08T15:48:23.752Z,64.82
2023-03-08T15:50:52.338Z,65.38
2023-03-08T15:53:34.577Z,66.05
2023-03-08T15:56:03.842Z,66.26
2023-03-08T15:58:39.538Z,66.28
2023-03-08T16:01:07.991Z,66.42
2023-03-08T16:03:36.566Z,66.72
2023-03-08T16:06:12.062Z,66.95
2023-03-08T16:08:41.334Z,67.13
2023-03-08T16:11:17.175Z,67.57
2023-03-08T16:13:48.914Z,67.76
2023-03-08T16:16:17.566Z,68.00
2023-03-08T16:18:49.055Z,68.14
2023-03-08T16:21:17.667Z,68.21
2023-03-08T16:23:46.156Z,68.47
2023-03-08T16:26:17.372Z,68.70
2023-03-08T16:28:47.307Z,68.72
2023-03-08T16:31:15.883Z,68.88
2023-03-08T16:33:45.010Z,69.09
2023-03-08T16:36:13.532Z,69.13
2023-03-08T16:38:44.124Z,69.24
2023-03-08T16:41:14.300Z,69.35
2023-03-08T16:43:48.828Z,69.41
2023-03-08T16:46:20.529Z,69.45
2023-03-08T16:48:50.041Z,69.51
2023-03-08T16:51:20.276Z,69.44
2023-03-08T16:53:49.256Z,69.47
2023-03-08T16:56:27.539Z,69.57
2023-03-08T16:58:58.457Z,69.60
2023-03-08T17:01:27.245Z,69.68
2023-03-08T17:03:56.607Z,69.75
2023-03-08T17:06:27.163Z,69.92
2023-03-08T17:08:58.070Z,69.90
2023-03-08T17:11:28.093Z,70.20
2023-03-08T17:14:01.795Z,70.08
2023-03-08T17:16:35.911Z,70.28
2023-03-08T17:19:05.214Z,70.39
2023-03-08T17:21:38.561Z,70.45
2023-03-08T17:24:13.240Z,70.68
2023-03-08T17:26:46.441Z,70.60
2023-03-08T17:29:14.927Z,70.41
2023-03-08T17:31:43.711Z,70.48
2023-03-08T17:34:12.192Z,70.15
2023-03-08T17:36:40.719Z,70.13
2023-03-08T17:39:09.364Z,70.13
2023-03-08T17:43:53.337Z,69.99
2023-03-08T17:46:23.930Z,69.74
2023-03-08T17:48:53.980Z,69.64
2023-03-08T17:51:24.468Z,69.63
2023-03-08T17:53:53.221Z,69.58
2023-03-08T17:56:25.467Z,69.57
2023-03-08T17:58:54.872Z,69.43
2023-03-08T18:01:25.854Z,69.02
2023-03-08T18:03:55.653Z,68.84
2023-03-08T18:06:35.171Z,68.72
2023-03-08T18:09:06.218Z,68.50
2023-03-08T18:11:37.962Z,68.36
2023-03-08T18:14:10.869Z,68.34
2023-03-08T18:16:39.552Z,68.74
2023-03-08T18:19:13.459Z,69.05
2023-03-08T18:21:41.905Z,69.08
2023-03-08T18:24:13.197Z,69.06
2023-03-08T18:26:41.615Z,68.88
2023-03-08T18:29:10.255Z,68.97
2023-03-08T18:31:40.609Z,68.91
2023-03-08T18:34:09.584Z,68.92
2023-03-08T18:36:38.165Z,68.65
2023-03-08T18:39:08.306Z,67.94
2023-03-08T18:41:36.755Z,67.69
2023-03-08T18:44:11.813Z,68.02
2023-03-08T18:46:40.254Z,68.40
2023-03-08T18:49:11.486Z,68.70
2023-03-08T18:51:40.746Z,68.70
2023-03-08T18:54:20.798Z,68.32
2023-03-08T18:56:50.192Z,68.39
2023-03-08T18:59:18.658Z,68.29
2023-03-08T19:01:47.397Z,68.13
2023-03-08T19:04:16.755Z,68.17
2023-03-08T19:06:45.026Z,67.98
2023-03-08T19:09:15.962Z,67.77
2023-03-08T19:11:45.955Z,67.48
2023-03-08T19:14:14.933Z,67.36
2023-03-08T19:16:44.369Z,67.43
2023-03-08T19:19:14.678Z,67.31
2023-03-08T19:21:46.900Z,67.20
2023-03-08T19:24:17.112Z,67.10
2023-03-08T19:26:49.168Z,67.40
2023-03-08T19:29:22.370Z,67.96
2023-03-08T19:31:55.976Z,67.79
2023-03-08T19:34:26.656Z,67.85
2023-03-08T19:36:55.592Z,68.21
2023-03-08T19:39:27.244Z,68.13
2023-03-08T19:42:01.409Z,68.19
2023-03-08T19:44:31.482Z,68.24
2023-03-08T19:47:02.218Z,68.24
2023-03-08T19:49:32.860Z,68.40
2023-03-08T19:52:03.254Z,68.51
2023-03-08T19:54:32.478Z,68.44
2023-03-08T19:57:01.367Z,68.56
2023-03-08T19:59:31.902Z,68.73
2023-03-08T20:02:01.305Z,68.65
2023-03-08T20:04:30.205Z,68.21
2023-03-08T20:07:02.055Z,68.25
2023-03-08T20:09:31.667Z,68.51
2023-03-08T20:12:00.762Z,68.80
2023-03-08T20:14:31.216Z,68.73
2023-03-08T20:17:01.662Z,69.18
2023-03-08T20:19:36.965Z,69.58
2023-03-08T20:22:05.430Z,69.74
2023-03-08T20:24:35.261Z,70.23
2023-03-08T20:27:04.868Z,70.24
2023-03-08T20:29:34.786Z,69.91
2023-03-08T20:32:03.578Z,69.68
2023-03-08T20:34:32.894Z,69.63
2023-03-08T20:37:03.005Z,69.79
2023-03-08T20:39:32.616Z,69.48
2023-03-08T20:42:01.185Z,69.42
2023-03-08T20:44:29.875Z,69.19
2023-03-08T20:46:58.250Z,69.43
2023-03-08T20:49:28.476Z,69.37
2023-03-08T20:51:57.268Z,69.10
2023-03-08T20:54:32.608Z,68.72
2023-03-08T20:57:01.299Z,68.44
2023-03-08T20:59:29.986Z,68.24
2023-03-08T21:01:59.394Z,68.28
2023-03-08T21:04:27.891Z,68.49
2023-03-08T21:07:01.403Z,69.20
2023-03-08T21:09:30.366Z,69.70
2023-03-08T21:11:58.949Z,70.03
2023-03-08T21:14:29.280Z,70.21
2023-03-08T21:16:57.860Z,70.52
2023-03-08T21:19:26.242Z,70.84
2023-03-08T21:21:56.868Z,70.97
2023-03-08T21:24:25.635Z,71.16
2023-03-08T21:26:54.453Z,71.04
2023-03-08T21:29:25.496Z,71.03
2023-03-08T21:31:54.294Z,71.09
2023-03-08T21:34:23.481Z,71.24
2023-03-08T21:36:52.484Z,71.07
2023-03-08T21:39:20.961Z,70.83
2023-03-08T21:41:50.055Z,70.67
2023-03-08T21:44:19.583Z,70.42
2023-03-08T21:46:49.873Z,70.24
2023-03-08T21:49:23.748Z,70.09
2023-03-08T21:51:57.308Z,70.20
2023-03-08T21:54:28.034Z,70.24
2023-03-08T21:56:57.031Z,70.22
2023-03-08T21:59:27.361Z,70.50
2023-03-08T22:01:58.662Z,70.73
2023-03-08T22:04:27.596Z,70.76
2023-03-08T22:06:56.304Z,70.77
2023-03-08T22:09:30.092Z,71.08
2023-03-08T22:12:00.110Z,70.96
2023-03-08T22:14:28.899Z,70.98
2023-03-08T22:17:01.068Z,70.91
2023-03-08T22:19:29.662Z,70.87
2023-03-08T22:21:59.068Z,70.77
2023-03-08T22:24:27.645Z,70.51
2023-03-08T22:27:03.615Z,70.47
2023-03-08T22:29:32.289Z,70.45
2023-03-08T22:32:01.299Z,70.36
2023-03-08T22:34:29.775Z,70.24
2023-03-08T22:36:58.152Z,70.12
2023-03-08T22:39:28.164Z,69.85
2023-03-08T22:41:57.783Z,69.77
2023-03-08T22:44:26.161Z,69.71
2023-03-08T22:46:58.330Z,69.73
2023-03-08T22:49:26.812Z,69.69
2023-03-08T22:51:55.209Z,69.75
2023-03-08T22:54:23.887Z,69.83
2023-03-08T22:56:52.365Z,70.11
2023-03-08T22:59:20.750Z,70.15
2023-03-08T23:01:49.409Z,70.24
2023-03-08T23:04:18.541Z,70.23
2023-03-08T23:06:48.076Z,70.46
2023-03-08T23:09:17.441Z,70.60
2023-03-08T23:11:45.821Z,70.68
2023-03-08T23:14:16.866Z,70.72
2023-03-08T23:16:48.177Z,70.71
2023-03-08T23:19:18.440Z,70.97
2023-03-08T23:22:06.477Z,71.11
2023-03-08T23:24:36.090Z,71.39
2023-03-08T23:27:04.573Z,71.74
2023-03-08T23:29:34.384Z,71.78
2023-03-08T23:32:03.317Z,71.74
2023-03-08T23:34:32.483Z,71.68
2023-03-08T23:37:05.874Z,71.73
2023-03-08T23:39:37.530Z,71.80
2023-03-08T23:42:06.523Z,71.87
2023-03-08T23:44:37.988Z,71.74
2023-03-08T23:47:06.972Z,72.02
2023-03-08T23:49:37.910Z,72.05
2023-03-08T23:52:06.594Z,72.12
2023-03-08T23:54:36.107Z,72.18
2023-03-08T23:57:04.487Z,72.38
2023-03-08T23:59:32.879Z,72.53
